sensor_id;sensor_type;location;lat;lon;timestamp;P1;durP1;ratioP1;P2;durP2;ratioP2
41139;SDS011;26881;48.784;9.192;2024-01-25T00:00:47;23.48;;;4.82;;
41139;SDS011;26881;48.784;9.192;2024-01-25T00:06:10;27.45;;;4.82;;
41139;SDS011;26881;48.784;9.192;2024-01-25T00:11:32;23.90;;;5.10;;
41139;SDS011;26881;48.784;9.192;2024-01-25T00:16:55;26.42;;;4.55;;
41139;SDS011;26881;48.784;9.192;2024-01-25T00:22:17;26.83;;;4.28;;
41139;SDS011;26881;48.784;9.192;2024-01-25T00:27:39;30.00;;;5.50;;
41139;SDS011;26881;48.784;9.192;2024-01-25T00:33:00;28.73;;;5.70;;
41139;SDS011;26881;48.784;9.192;2024-01-25T00:38:23;31.75;;;5.32;;
41139;SDS011;26881;48.784;9.192;2024-01-25T00:43:45;31.70;;;5.35;;
41139;SDS011;26881;48.784;9.192;2024-01-25T00:49:08;28.63;;;6.07;;
41139;SDS011;26881;48.784;9.192;2024-01-25T00:54:30;24.00;;;4.65;;
41139;SDS011;26881;48.784;9.192;2024-01-25T00:59:52;23.33;;;5.13;;
41139;SDS011;26881;48.784;9.192;2024-01-25T01:05:14;31.50;;;5.50;;
41139;SDS011;26881;48.784;9.192;2024-01-25T01:10:36;24.92;;;5.03;;
41139;SDS011;26881;48.784;9.192;2024-01-25T01:15:58;22.70;;;4.43;;
41139;SDS011;26881;48.784;9.192;2024-01-25T01:21:20;21.80;;;4.80;;
41139;SDS011;26881;48.784;9.192;2024-01-25T01:26:43;26.80;;;5.15;;
41139;SDS011;26881;48.784;9.192;2024-01-25T01:32:05;26.55;;;5.10;;
41139;SDS011;26881;48.784;9.192;2024-01-25T01:37:27;27.83;;;5.30;;
41139;SDS011;26881;48.784;9.192;2024-01-25T01:42:49;25.40;;;4.97;;
41139;SDS011;26881;48.784;9.192;2024-01-25T01:48:11;23.50;;;4.65;;
41139;SDS011;26881;48.784;9.192;2024-01-25T01:53:34;20.20;;;4.32;;
41139;SDS011;26881;48.784;9.192;2024-01-25T01:58:57;28.08;;;4.97;;
41139;SDS011;26881;48.784;9.192;2024-01-25T02:04:21;26.98;;;4.80;;
41139;SDS011;26881;48.784;9.192;2024-01-25T02:09:43;26.67;;;4.68;;
41139;SDS011;26881;48.784;9.192;2024-01-25T02:15:05;20.95;;;4.00;;
41139;SDS011;26881;48.784;9.192;2024-01-25T02:20:27;25.13;;;4.00;;
41139;SDS011;26881;48.784;9.192;2024-01-25T02:25:49;22.98;;;4.57;;
41139;SDS011;26881;48.784;9.192;2024-01-25T02:31:11;20.42;;;4.32;;
41139;SDS011;26881;48.784;9.192;2024-01-25T02:36:33;25.23;;;4.60;;
41139;SDS011;26881;48.784;9.192;2024-01-25T02:41:55;23.33;;;4.40;;
41139;SDS011;26881;48.784;9.192;2024-01-25T02:47:17;20.08;;;4.00;;
41139;SDS011;26881;48.784;9.192;2024-01-25T02:52:39;16.85;;;3.92;;
41139;SDS011;26881;48.784;9.192;2024-01-25T02:58:01;23.92;;;4.60;;
41139;SDS011;26881;48.784;9.192;2024-01-25T03:03:23;21.98;;;4.22;;
41139;SDS011;26881;48.784;9.192;2024-01-25T03:08:45;19.17;;;3.67;;
41139;SDS011;26881;48.784;9.192;2024-01-25T03:14:07;25.85;;;4.60;;
41139;SDS011;26881;48.784;9.192;2024-01-25T03:19:29;25.05;;;4.88;;
41139;SDS011;26881;48.784;9.192;2024-01-25T03:24:51;26.10;;;4.50;;
41139;SDS011;26881;48.784;9.192;2024-01-25T03:30:13;23.88;;;3.97;;
41139;SDS011;26881;48.784;9.192;2024-01-25T03:35:35;19.73;;;4.20;;
41139;SDS011;26881;48.784;9.192;2024-01-25T03:40:57;22.60;;;4.30;;
41139;SDS011;26881;48.784;9.192;2024-01-25T03:46:20;25.48;;;4.68;;
41139;SDS011;26881;48.784;9.192;2024-01-25T03:51:42;26.08;;;4.10;;
41139;SDS011;26881;48.784;9.192;2024-01-25T03:57:04;29.35;;;4.57;;
41139;SDS011;26881;48.784;9.192;2024-01-25T04:02:26;27.07;;;4.70;;
41139;SDS011;26881;48.784;9.192;2024-01-25T04:07:48;24.00;;;4.70;;
41139;SDS011;26881;48.784;9.192;2024-01-25T04:13:10;25.25;;;4.60;;
41139;SDS011;26881;48.784;9.192;2024-01-25T04:18:32;25.08;;;4.60;;
41139;SDS011;26881;48.784;9.192;2024-01-25T04:23:54;19.40;;;4.25;;
41139;SDS011;26881;48.784;9.192;2024-01-25T04:29:16;29.70;;;5.03;;
41139;SDS011;26881;48.784;9.192;2024-01-25T04:34:38;23.70;;;4.47;;
41139;SDS011;26881;48.784;9.192;2024-01-25T04:40:00;27.77;;;4.93;;
41139;SDS011;26881;48.784;9.192;2024-01-25T04:45:22;27.90;;;4.53;;
41139;SDS011;26881;48.784;9.192;2024-01-25T04:50:44;25.83;;;4.95;;
41139;SDS011;26881;48.784;9.192;2024-01-25T04:56:06;21.90;;;4.55;;
41139;SDS011;26881;48.784;9.192;2024-01-25T05:01:28;22.75;;;4.30;;
41139;SDS011;26881;48.784;9.192;2024-01-25T05:06:50;22.23;;;4.38;;
41139;SDS011;26881;48.784;9.192;2024-01-25T05:12:12;23.73;;;5.38;;
41139;SDS011;26881;48.784;9.192;2024-01-25T05:17:34;23.95;;;4.05;;
41139;SDS011;26881;48.784;9.192;2024-01-25T05:22:56;20.33;;;4.32;;
41139;SDS011;26881;48.784;9.192;2024-01-25T05:28:18;26.95;;;4.72;;
41139;SDS011;26881;48.784;9.192;2024-01-25T05:33:40;18.37;;;3.93;;
41139;SDS011;26881;48.784;9.192;2024-01-25T05:39:02;24.45;;;4.90;;
41139;SDS011;26881;48.784;9.192;2024-01-25T05:44:28;26.60;;;5.35;;
41139;SDS011;26881;48.784;9.192;2024-01-25T05:49:49;25.35;;;4.82;;
41139;SDS011;26881;48.784;9.192;2024-01-25T05:55:12;24.70;;;4.30;;
41139;SDS011;26881;48.784;9.192;2024-01-25T06:00:36;20.58;;;3.83;;
41139;SDS011;26881;48.784;9.192;2024-01-25T06:05:58;30.15;;;4.82;;
41139;SDS011;26881;48.784;9.192;2024-01-25T06:11:20;17.88;;;4.20;;
41139;SDS011;26881;48.784;9.192;2024-01-25T06:16:42;21.90;;;4.55;;
41139;SDS011;26881;48.784;9.192;2024-01-25T06:22:04;23.63;;;5.23;;
41139;SDS011;26881;48.784;9.192;2024-01-25T06:27:26;27.17;;;5.20;;
41139;SDS011;26881;48.784;9.192;2024-01-25T06:32:48;18.50;;;4.73;;
41139;SDS011;26881;48.784;9.192;2024-01-25T06:38:10;21.63;;;4.63;;
41139;SDS011;26881;48.784;9.192;2024-01-25T06:43:32;29.50;;;4.68;;
41139;SDS011;26881;48.784;9.192;2024-01-25T06:48:54;27.05;;;5.63;;
41139;SDS011;26881;48.784;9.192;2024-01-25T06:54:16;32.10;;;4.80;;
41139;SDS011;26881;48.784;9.192;2024-01-25T06:59:38;25.30;;;5.13;;
41139;SDS011;26881;48.784;9.192;2024-01-25T07:05:00;32.20;;;4.95;;
41139;SDS011;26881;48.784;9.192;2024-01-25T07:10:23;32.38;;;6.05;;
41139;SDS011;26881;48.784;9.192;2024-01-25T07:15:46;27.13;;;5.45;;
41139;SDS011;26881;48.784;9.192;2024-01-25T07:21:08;31.30;;;5.32;;
41139;SDS011;26881;48.784;9.192;2024-01-25T07:26:29;27.07;;;5.33;;
41139;SDS011;26881;48.784;9.192;2024-01-25T07:31:52;21.88;;;5.00;;
41139;SDS011;26881;48.784;9.192;2024-01-25T07:37:14;29.73;;;5.07;;
41139;SDS011;26881;48.784;9.192;2024-01-25T07:42:36;24.02;;;5.72;;
41139;SDS011;26881;48.784;9.192;2024-01-25T07:47:58;33.30;;;5.97;;
41139;SDS011;26881;48.784;9.192;2024-01-25T07:53:35;30.10;;;4.93;;
41139;SDS011;26881;48.784;9.192;2024-01-25T07:58:56;24.27;;;5.17;;
41139;SDS011;26881;48.784;9.192;2024-01-25T08:04:21;26.10;;;6.50;;
41139;SDS011;26881;48.784;9.192;2024-01-25T08:09:43;26.40;;;5.30;;
41139;SDS011;26881;48.784;9.192;2024-01-25T08:15:05;32.95;;;6.15;;
41139;SDS011;26881;48.784;9.192;2024-01-25T08:20:28;27.90;;;5.80;;
41139;SDS011;26881;48.784;9.192;2024-01-25T08:25:50;34.03;;;5.05;;
41139;SDS011;26881;48.784;9.192;2024-01-25T08:31:12;32.77;;;4.93;;
41139;SDS011;26881;48.784;9.192;2024-01-25T08:36:34;32.80;;;5.63;;
41139;SDS011;26881;48.784;9.192;2024-01-25T08:41:56;29.60;;;5.13;;
41139;SDS011;26881;48.784;9.192;2024-01-25T08:47:22;25.63;;;4.60;;
41139;SDS011;26881;48.784;9.192;2024-01-25T08:52:44;19.77;;;4.85;;
41139;SDS011;26881;48.784;9.192;2024-01-25T08:58:05;28.77;;;5.10;;
41139;SDS011;26881;48.784;9.192;2024-01-25T09:03:27;25.30;;;4.80;;
41139;SDS011;26881;48.784;9.192;2024-01-25T09:08:49;18.83;;;4.60;;
41139;SDS011;26881;48.784;9.192;2024-01-25T09:14:11;21.25;;;4.80;;
41139;SDS011;26881;48.784;9.192;2024-01-25T09:19:33;22.83;;;4.73;;
41139;SDS011;26881;48.784;9.192;2024-01-25T09:24:55;24.40;;;4.43;;
41139;SDS011;26881;48.784;9.192;2024-01-25T09:30:17;20.70;;;4.05;;
41139;SDS011;26881;48.784;9.192;2024-01-25T09:35:40;20.42;;;4.43;;
41139;SDS011;26881;48.784;9.192;2024-01-25T09:41:02;21.02;;;3.97;;
41139;SDS011;26881;48.784;9.192;2024-01-25T09:46:25;24.58;;;3.97;;
41139;SDS011;26881;48.784;9.192;2024-01-25T09:51:50;22.55;;;3.63;;
41139;SDS011;26881;48.784;9.192;2024-01-25T09:57:14;21.88;;;4.40;;
41139;SDS011;26881;48.784;9.192;2024-01-25T10:02:39;24.77;;;5.18;;
41139;SDS011;26881;48.784;9.192;2024-01-25T10:08:01;21.90;;;4.47;;
41139;SDS011;26881;48.784;9.192;2024-01-25T10:13:24;22.55;;;4.47;;
41139;SDS011;26881;48.784;9.192;2024-01-25T10:18:47;23.58;;;4.57;;
41139;SDS011;26881;48.784;9.192;2024-01-25T10:24:11;16.83;;;4.68;;
41139;SDS011;26881;48.784;9.192;2024-01-25T10:29:34;21.27;;;4.15;;
41139;SDS011;26881;48.784;9.192;2024-01-25T10:34:56;17.67;;;3.65;;
41139;SDS011;26881;48.784;9.192;2024-01-25T10:40:20;21.60;;;3.78;;
41139;SDS011;26881;48.784;9.192;2024-01-25T10:45:43;20.25;;;4.65;;
41139;SDS011;26881;48.784;9.192;2024-01-25T10:51:06;19.98;;;4.57;;
41139;SDS011;26881;48.784;9.192;2024-01-25T10:56:28;17.55;;;4.13;;
41139;SDS011;26881;48.784;9.192;2024-01-25T11:01:50;16.23;;;4.30;;
41139;SDS011;26881;48.784;9.192;2024-01-25T11:07:12;19.17;;;4.30;;
41139;SDS011;26881;48.784;9.192;2024-01-25T11:12:35;12.90;;;3.38;;
41139;SDS011;26881;48.784;9.192;2024-01-25T11:17:58;17.25;;;3.67;;
41139;SDS011;26881;48.784;9.192;2024-01-25T11:23:20;17.20;;;4.15;;
41139;SDS011;26881;48.784;9.192;2024-01-25T11:28:43;13.90;;;3.35;;
41139;SDS011;26881;48.784;9.192;2024-01-25T11:34:05;14.23;;;3.75;;
41139;SDS011;26881;48.784;9.192;2024-01-25T11:39:27;20.10;;;3.78;;
41139;SDS011;26881;48.784;9.192;2024-01-25T11:44:49;13.65;;;3.63;;
41139;SDS011;26881;48.784;9.192;2024-01-25T11:50:12;13.35;;;4.50;;
41139;SDS011;26881;48.784;9.192;2024-01-25T11:55:34;15.48;;;3.25;;
41139;SDS011;26881;48.784;9.192;2024-01-25T12:00:56;12.93;;;3.28;;
41139;SDS011;26881;48.784;9.192;2024-01-25T12:06:19;13.63;;;3.83;;
41139;SDS011;26881;48.784;9.192;2024-01-25T12:11:41;15.10;;;3.80;;
41139;SDS011;26881;48.784;9.192;2024-01-25T12:17:03;12.77;;;2.97;;
41139;SDS011;26881;48.784;9.192;2024-01-25T12:22:29;12.70;;;3.28;;
41139;SDS011;26881;48.784;9.192;2024-01-25T12:27:55;13.38;;;3.47;;
41139;SDS011;26881;48.784;9.192;2024-01-25T12:33:17;10.75;;;3.42;;
41139;SDS011;26881;48.784;9.192;2024-01-25T12:38:42;14.50;;;4.00;;
41139;SDS011;26881;48.784;9.192;2024-01-25T12:44:04;15.77;;;3.80;;
41139;SDS011;26881;48.784;9.192;2024-01-25T12:49:26;15.30;;;3.45;;
41139;SDS011;26881;48.784;9.192;2024-01-25T12:54:48;10.55;;;3.22;;
41139;SDS011;26881;48.784;9.192;2024-01-25T13:00:10;10.65;;;3.13;;
41139;SDS011;26881;48.784;9.192;2024-01-25T13:05:33;12.63;;;4.25;;
41139;SDS011;26881;48.784;9.192;2024-01-25T13:10:56;9.75;;;3.20;;
41139;SDS011;26881;48.784;9.192;2024-01-25T13:16:18;10.95;;;3.40;;
41139;SDS011;26881;48.784;9.192;2024-01-25T13:21:40;12.60;;;3.28;;
41139;SDS011;26881;48.784;9.192;2024-01-25T13:27:02;12.48;;;3.65;;
41139;SDS011;26881;48.784;9.192;2024-01-25T13:32:25;11.10;;;3.60;;
41139;SDS011;26881;48.784;9.192;2024-01-25T13:37:47;10.27;;;3.50;;
41139;SDS011;26881;48.784;9.192;2024-01-25T13:43:08;12.60;;;3.33;;
41139;SDS011;26881;48.784;9.192;2024-01-25T13:48:30;11.55;;;3.25;;
41139;SDS011;26881;48.784;9.192;2024-01-25T13:53:52;10.75;;;2.97;;
41139;SDS011;26881;48.784;9.192;2024-01-25T13:59:15;9.52;;;3.15;;
41139;SDS011;26881;48.784;9.192;2024-01-25T14:04:38;11.95;;;3.60;;
41139;SDS011;26881;48.784;9.192;2024-01-25T14:10:01;12.75;;;3.38;;
41139;SDS011;26881;48.784;9.192;2024-01-25T14:15:23;14.65;;;3.45;;
41139;SDS011;26881;48.784;9.192;2024-01-25T14:20:45;13.48;;;3.72;;
41139;SDS011;26881;48.784;9.192;2024-01-25T14:26:07;15.88;;;3.45;;
41139;SDS011;26881;48.784;9.192;2024-01-25T14:31:29;12.73;;;2.90;;
41139;SDS011;26881;48.784;9.192;2024-01-25T14:36:51;12.38;;;3.05;;
41139;SDS011;26881;48.784;9.192;2024-01-25T14:42:13;11.93;;;3.20;;
41139;SDS011;26881;48.784;9.192;2024-01-25T14:47:35;17.90;;;3.65;;
41139;SDS011;26881;48.784;9.192;2024-01-25T14:52:57;15.88;;;3.60;;
41139;SDS011;26881;48.784;9.192;2024-01-25T14:58:19;20.95;;;3.92;;
41139;SDS011;26881;48.784;9.192;2024-01-25T15:03:44;16.65;;;3.30;;
41139;SDS011;26881;48.784;9.192;2024-01-25T15:09:09;13.50;;;3.42;;
41139;SDS011;26881;48.784;9.192;2024-01-25T15:14:31;14.23;;;3.33;;
41139;SDS011;26881;48.784;9.192;2024-01-25T15:19:53;21.38;;;3.95;;
41139;SDS011;26881;48.784;9.192;2024-01-25T15:25:15;15.52;;;3.75;;
41139;SDS011;26881;48.784;9.192;2024-01-25T15:30:38;16.67;;;3.85;;
41139;SDS011;26881;48.784;9.192;2024-01-25T15:35:59;16.48;;;3.38;;
41139;SDS011;26881;48.784;9.192;2024-01-25T15:41:21;16.75;;;3.80;;
41139;SDS011;26881;48.784;9.192;2024-01-25T15:46:43;16.80;;;4.23;;
41139;SDS011;26881;48.784;9.192;2024-01-25T15:52:05;21.45;;;3.80;;
41139;SDS011;26881;48.784;9.192;2024-01-25T15:57:28;21.13;;;4.00;;
41139;SDS011;26881;48.784;9.192;2024-01-25T16:02:53;12.98;;;3.15;;
41139;SDS011;26881;48.784;9.192;2024-01-25T16:08:17;14.55;;;3.15;;
41139;SDS011;26881;48.784;9.192;2024-01-25T16:13:39;13.80;;;3.15;;
41139;SDS011;26881;48.784;9.192;2024-01-25T16:19:05;14.50;;;2.83;;
41139;SDS011;26881;48.784;9.192;2024-01-25T16:24:27;16.60;;;4.38;;
41139;SDS011;26881;48.784;9.192;2024-01-25T16:29:49;19.88;;;6.07;;
41139;SDS011;26881;48.784;9.192;2024-01-25T16:35:11;24.48;;;7.47;;
41139;SDS011;26881;48.784;9.192;2024-01-25T16:40:33;14.88;;;6.85;;
41139;SDS011;26881;48.784;9.192;2024-01-25T16:45:55;20.05;;;7.50;;
41139;SDS011;26881;48.784;9.192;2024-01-25T16:51:17;18.83;;;6.78;;
41139;SDS011;26881;48.784;9.192;2024-01-25T16:56:39;21.95;;;7.88;;
41139;SDS011;26881;48.784;9.192;2024-01-25T17:02:01;17.17;;;6.30;;
41139;SDS011;26881;48.784;9.192;2024-01-25T17:07:24;21.63;;;4.90;;
41139;SDS011;26881;48.784;9.192;2024-01-25T17:12:46;16.05;;;4.22;;
41139;SDS011;26881;48.784;9.192;2024-01-25T17:18:08;19.38;;;4.78;;
41139;SDS011;26881;48.784;9.192;2024-01-25T17:23:31;20.33;;;5.90;;
41139;SDS011;26881;48.784;9.192;2024-01-25T17:28:53;18.42;;;5.18;;
41139;SDS011;26881;48.784;9.192;2024-01-25T17:34:18;17.55;;;4.38;;
41139;SDS011;26881;48.784;9.192;2024-01-25T17:39:40;15.95;;;5.40;;
41139;SDS011;26881;48.784;9.192;2024-01-25T17:45:04;16.77;;;5.35;;
41139;SDS011;26881;48.784;9.192;2024-01-25T17:50:27;21.58;;;4.97;;
41139;SDS011;26881;48.784;9.192;2024-01-25T17:55:49;15.45;;;4.38;;
41139;SDS011;26881;48.784;9.192;2024-01-25T18:01:11;19.63;;;5.53;;
41139;SDS011;26881;48.784;9.192;2024-01-25T18:06:33;13.60;;;4.53;;
41139;SDS011;26881;48.784;9.192;2024-01-25T18:11:55;18.50;;;5.45;;
41139;SDS011;26881;48.784;9.192;2024-01-25T18:17:17;25.03;;;4.60;;
41139;SDS011;26881;48.784;9.192;2024-01-25T18:22:39;20.13;;;4.15;;
41139;SDS011;26881;48.784;9.192;2024-01-25T18:28:01;19.48;;;4.72;;
41139;SDS011;26881;48.784;9.192;2024-01-25T18:33:23;13.82;;;4.88;;
41139;SDS011;26881;48.784;9.192;2024-01-25T18:38:45;16.05;;;4.47;;
41139;SDS011;26881;48.784;9.192;2024-01-25T18:44:09;16.05;;;4.30;;
41139;SDS011;26881;48.784;9.192;2024-01-25T18:49:31;12.00;;;4.13;;
41139;SDS011;26881;48.784;9.192;2024-01-25T18:54:53;15.15;;;4.18;;
41139;SDS011;26881;48.784;9.192;2024-01-25T19:00:15;13.57;;;4.45;;
41139;SDS011;26881;48.784;9.192;2024-01-25T19:05:37;13.48;;;3.83;;
41139;SDS011;26881;48.784;9.192;2024-01-25T19:11:00;14.23;;;4.00;;
41139;SDS011;26881;48.784;9.192;2024-01-25T19:16:22;15.98;;;3.72;;
41139;SDS011;26881;48.784;9.192;2024-01-25T19:21:44;11.70;;;4.15;;
41139;SDS011;26881;48.784;9.192;2024-01-25T19:27:06;10.35;;;3.65;;
41139;SDS011;26881;48.784;9.192;2024-01-25T19:32:27;15.95;;;3.97;;
41139;SDS011;26881;48.784;9.192;2024-01-25T19:37:53;16.20;;;4.35;;
41139;SDS011;26881;48.784;9.192;2024-01-25T19:43:15;12.00;;;3.50;;
41139;SDS011;26881;48.784;9.192;2024-01-25T19:48:37;13.73;;;3.50;;
41139;SDS011;26881;48.784;9.192;2024-01-25T19:53:59;10.27;;;3.20;;
41139;SDS011;26881;48.784;9.192;2024-01-25T19:59:21;14.15;;;4.10;;
41139;SDS011;26881;48.784;9.192;2024-01-25T20:04:44;14.90;;;3.53;;
41139;SDS011;26881;48.784;9.192;2024-01-25T20:10:06;10.15;;;3.55;;
41139;SDS011;26881;48.784;9.192;2024-01-25T20:15:28;9.77;;;3.60;;
41139;SDS011;26881;48.784;9.192;2024-01-25T20:20:50;14.00;;;3.95;;
41139;SDS011;26881;48.784;9.192;2024-01-25T20:26:12;5.60;;;3.38;;
41139;SDS011;26881;48.784;9.192;2024-01-25T20:31:36;6.78;;;3.58;;
41139;SDS011;26881;48.784;9.192;2024-01-25T20:36:58;9.95;;;3.40;;
41139;SDS011;26881;48.784;9.192;2024-01-25T20:42:20;6.38;;;3.53;;
41139;SDS011;26881;48.784;9.192;2024-01-25T20:47:42;9.43;;;3.78;;
41139;SDS011;26881;48.784;9.192;2024-01-25T20:53:05;8.95;;;4.03;;
41139;SDS011;26881;48.784;9.192;2024-01-25T20:58:28;13.55;;;5.60;;
41139;SDS011;26881;48.784;9.192;2024-01-25T21:03:50;27.40;;;16.98;;
41139;SDS011;26881;48.784;9.192;2024-01-25T21:09:12;15.60;;;6.38;;
41139;SDS011;26881;48.784;9.192;2024-01-25T21:14:34;17.35;;;5.43;;
41139;SDS011;26881;48.784;9.192;2024-01-25T21:19:56;11.85;;;5.05;;
41139;SDS011;26881;48.784;9.192;2024-01-25T21:25:19;11.27;;;4.72;;
41139;SDS011;26881;48.784;9.192;2024-01-25T21:30:40;8.18;;;4.85;;
41139;SDS011;26881;48.784;9.192;2024-01-25T21:36:02;10.80;;;4.60;;
41139;SDS011;26881;48.784;9.192;2024-01-25T21:41:25;9.43;;;4.45;;
41139;SDS011;26881;48.784;9.192;2024-01-25T21:46:47;9.95;;;4.70;;
41139;SDS011;26881;48.784;9.192;2024-01-25T21:52:09;16.10;;;5.35;;
41139;SDS011;26881;48.784;9.192;2024-01-25T21:57:31;5.78;;;3.60;;
41139;SDS011;26881;48.784;9.192;2024-01-25T22:02:53;4.22;;;2.92;;
41139;SDS011;26881;48.784;9.192;2024-01-25T22:08:17;11.15;;;4.78;;
41139;SDS011;26881;48.784;9.192;2024-01-25T22:13:39;9.52;;;5.18;;
41139;SDS011;26881;48.784;9.192;2024-01-25T22:19:01;11.27;;;4.75;;
41139;SDS011;26881;48.784;9.192;2024-01-25T22:24:23;10.10;;;4.10;;
41139;SDS011;26881;48.784;9.192;2024-01-25T22:29:45;8.18;;;4.25;;
41139;SDS011;26881;48.784;9.192;2024-01-25T22:35:07;7.90;;;5.00;;
41139;SDS011;26881;48.784;9.192;2024-01-25T22:40:29;8.35;;;5.03;;
41139;SDS011;26881;48.784;9.192;2024-01-25T22:45:52;10.00;;;5.65;;
41139;SDS011;26881;48.784;9.192;2024-01-25T22:51:14;8.18;;;5.38;;
41139;SDS011;26881;48.784;9.192;2024-01-25T22:56:36;10.38;;;5.63;;
41139;SDS011;26881;48.784;9.192;2024-01-25T23:01:59;12.82;;;5.50;;
41139;SDS011;26881;48.784;9.192;2024-01-25T23:07:21;8.97;;;5.67;;
41139;SDS011;26881;48.784;9.192;2024-01-25T23:12:43;7.38;;;4.85;;
41139;SDS011;26881;48.784;9.192;2024-01-25T23:18:05;9.07;;;5.57;;
41139;SDS011;26881;48.784;9.192;2024-01-25T23:23:28;9.60;;;5.10;;
41139;SDS011;26881;48.784;9.192;2024-01-25T23:28:50;5.57;;;4.10;;
41139;SDS011;26881;48.784;9.192;2024-01-25T23:34:12;8.73;;;3.30;;
41139;SDS011;26881;48.784;9.192;2024-01-25T23:39:34;3.50;;;2.83;;
41139;SDS011;26881;48.784;9.192;2024-01-25T23:44:56;3.92;;;3.03;;
41139;SDS011;26881;48.784;9.192;2024-01-25T23:50:18;5.60;;;3.00;;
41139;SDS011;26881;48.784;9.192;2024-01-25T23:55:40;2.40;;;2.20;;
